sensor_id;sensor_type;location;lat;lon;timestamp;P1;durP1;ratioP1;P2;durP2;ratioP2
81815;SDS011;71249;52.084;5.304;2023-07-13T00:02:30;7.2;;;2.31;;
81815;SDS011;71249;52.084;5.304;2023-07-13T00:04:06;8.4;;;2.7;;
81815;SDS011;71249;52.084;5.304;2023-07-13T00:05:42;10.1;;;2.4;;
81815;SDS011;71249;52.084;5.304;2023-07-13T00:08:54;10.6;;;2.7;;
81815;SDS011;71249;52.084;5.304;2023-07-13T00:10:30;8.5;;;2.8;;
81815;SDS011;71249;52.084;5.304;2023-07-13T00:12:21;8.1;;;2.5;;
81815;SDS011;71249;52.084;5.304;2023-07-13T00:14:04;8.2;;;2.31;;
81815;SDS011;71249;52.084;5.304;2023-07-13T00:17:16;8.71;;;2.6;;
81815;SDS011;71249;52.084;5.304;2023-07-13T00:18:52;6.2;;;2.31;;
81815;SDS011;71249;52.084;5.304;2023-07-13T00:20:28;7.8;;;2.1;;
81815;SDS011;71249;52.084;5.304;2023-07-13T00:23:40;8.9;;;2.6;;
81815;SDS011;71249;52.084;5.304;2023-07-13T00:25:18;6.3;;;2.1;;
81815;SDS011;71249;52.084;5.304;2023-07-13T00:26:55;10.1;;;2.5;;
81815;SDS011;71249;52.084;5.304;2023-07-13T00:30:09;8.1;;;2.8;;
81815;SDS011;71249;52.084;5.304;2023-07-13T00:31:46;6.8;;;2.21;;
81815;SDS011;71249;52.084;5.304;2023-07-13T00:33:22;5.7;;;2.1;;
81815;SDS011;71249;52.084;5.304;2023-07-13T00:34:59;10.1;;;2.1;;
81815;SDS011;71249;52.084;5.304;2023-07-13T00:38:11;8.71;;;2.0;;
81815;SDS011;71249;52.084;5.304;2023-07-13T00:39:47;6.8;;;2.21;;
81815;SDS011;71249;52.084;5.304;2023-07-13T00:41:23;9.1;;;2.4;;
81815;SDS011;71249;52.084;5.304;2023-07-13T00:44:35;7.2;;;2.21;;
81815;SDS011;71249;52.084;5.304;2023-07-13T00:46:18;6.8;;;2.21;;
81815;SDS011;71249;52.084;5.304;2023-07-13T00:48:00;7.9;;;2.1;;
81815;SDS011;71249;52.084;5.304;2023-07-13T00:49:36;5.8;;;2.21;;
81815;SDS011;71249;52.084;5.304;2023-07-13T00:52:52;8.5;;;2.7;;
81815;SDS011;71249;52.084;5.304;2023-07-13T00:54:31;8.4;;;2.31;;
81815;SDS011;71249;52.084;5.304;2023-07-13T00:56:15;7.3;;;2.1;;
81815;SDS011;71249;52.084;5.304;2023-07-13T00:57:51;9.71;;;2.6;;
81815;SDS011;71249;52.084;5.304;2023-07-13T01:01:05;8.5;;;2.21;;
81815;SDS011;71249;52.084;5.304;2023-07-13T01:02:42;8.31;;;2.31;;
81815;SDS011;71249;52.084;5.304;2023-07-13T01:04:23;5.8;;;2.6;;
81815;SDS011;71249;52.084;5.304;2023-07-13T01:07:36;7.5;;;2.31;;
81815;SDS011;71249;52.084;5.304;2023-07-13T01:09:14;7.2;;;2.7;;
81815;SDS011;71249;52.084;5.304;2023-07-13T01:10:51;8.0;;;2.21;;
81815;SDS011;71249;52.084;5.304;2023-07-13T01:14:05;11.0;;;2.6;;
81815;SDS011;71249;52.084;5.304;2023-07-13T01:15:41;6.3;;;2.1;;
81815;SDS011;71249;52.084;5.304;2023-07-13T01:17:20;9.71;;;2.7;;
81815;SDS011;71249;52.084;5.304;2023-07-13T01:18:56;9.1;;;2.31;;
81815;SDS011;71249;52.084;5.304;2023-07-13T01:22:12;5.9;;;2.1;;
81815;SDS011;71249;52.084;5.304;2023-07-13T01:23:50;5.5;;;2.31;;
81815;SDS011;71249;52.084;5.304;2023-07-13T01:25:27;8.31;;;2.5;;
81815;SDS011;71249;52.084;5.304;2023-07-13T01:28:42;8.81;;;2.5;;
81815;SDS011;71249;52.084;5.304;2023-07-13T01:30:19;7.9;;;2.5;;
81815;SDS011;71249;52.084;5.304;2023-07-13T01:31:55;10.21;;;2.5;;
81815;SDS011;71249;52.084;5.304;2023-07-13T01:33:31;5.11;;;2.1;;
81815;SDS011;71249;52.084;5.304;2023-07-13T01:36:43;7.6;;;2.6;;
81815;SDS011;71249;52.084;5.304;2023-07-13T01:38:20;6.5;;;2.21;;
81815;SDS011;71249;52.084;5.304;2023-07-13T01:39:59;6.7;;;2.21;;
81815;SDS011;71249;52.084;5.304;2023-07-13T01:43:11;7.1;;;2.4;;
81815;SDS011;71249;52.084;5.304;2023-07-13T01:44:48;6.7;;;2.21;;
81815;SDS011;71249;52.084;5.304;2023-07-13T01:46:24;6.5;;;2.5;;
81815;SDS011;71249;52.084;5.304;2023-07-13T01:49:37;6.5;;;2.5;;
81815;SDS011;71249;52.084;5.304;2023-07-13T01:51:12;8.4;;;2.4;;
81815;SDS011;71249;52.084;5.304;2023-07-13T01:52:49;11.9;;;2.7;;
81815;SDS011;71249;52.084;5.304;2023-07-13T01:54:25;7.6;;;2.7;;
81815;SDS011;71249;52.084;5.304;2023-07-13T01:57:37;8.0;;;2.21;;
81815;SDS011;71249;52.084;5.304;2023-07-13T01:59:13;6.0;;;2.1;;
81815;SDS011;71249;52.084;5.304;2023-07-13T02:00:49;5.6;;;2.1;;
81815;SDS011;71249;52.084;5.304;2023-07-13T02:04:04;9.5;;;2.31;;
81815;SDS011;71249;52.084;5.304;2023-07-13T02:05:40;8.1;;;2.8;;
81815;SDS011;71249;52.084;5.304;2023-07-13T02:07:16;6.3;;;2.21;;
81815;SDS011;71249;52.084;5.304;2023-07-13T02:10:29;6.8;;;2.5;;
81815;SDS011;71249;52.084;5.304;2023-07-13T02:12:06;8.9;;;2.4;;
81815;SDS011;71249;52.084;5.304;2023-07-13T02:13:42;10.3;;;2.9;;
81815;SDS011;71249;52.084;5.304;2023-07-13T02:15:19;8.71;;;2.4;;
81815;SDS011;71249;52.084;5.304;2023-07-13T02:18:31;7.6;;;2.6;;
81815;SDS011;71249;52.084;5.304;2023-07-13T02:20:07;7.7;;;2.4;;
81815;SDS011;71249;52.084;5.304;2023-07-13T02:21:44;6.1;;;2.4;;
81815;SDS011;71249;52.084;5.304;2023-07-13T02:24:56;6.1;;;2.31;;
81815;SDS011;71249;52.084;5.304;2023-07-13T02:26:33;6.6;;;2.6;;
81815;SDS011;71249;52.084;5.304;2023-07-13T02:28:10;6.2;;;2.31;;
81815;SDS011;71249;52.084;5.304;2023-07-13T02:31:22;5.8;;;2.31;;
81815;SDS011;71249;52.084;5.304;2023-07-13T02:32:58;7.3;;;2.6;;
81815;SDS011;71249;52.084;5.304;2023-07-13T02:34:34;6.8;;;2.5;;
81815;SDS011;71249;52.084;5.304;2023-07-13T02:36:11;9.71;;;2.4;;
81815;SDS011;71249;52.084;5.304;2023-07-13T02:39:25;5.11;;;2.31;;
81815;SDS011;71249;52.084;5.304;2023-07-13T02:41:01;6.5;;;2.6;;
81815;SDS011;71249;52.084;5.304;2023-07-13T02:42:37;5.8;;;2.0;;
81815;SDS011;71249;52.084;5.304;2023-07-13T02:45:50;7.1;;;2.21;;
81815;SDS011;71249;52.084;5.304;2023-07-13T02:47:26;6.9;;;2.1;;
81815;SDS011;71249;52.084;5.304;2023-07-13T02:49:03;5.7;;;2.21;;
81815;SDS011;71249;52.084;5.304;2023-07-13T02:52:16;7.7;;;2.5;;
81815;SDS011;71249;52.084;5.304;2023-07-13T02:53:52;8.31;;;2.6;;
81815;SDS011;71249;52.084;5.304;2023-07-13T02:55:28;7.1;;;2.7;;
81815;SDS011;71249;52.084;5.304;2023-07-13T02:58:41;9.6;;;2.7;;
81815;SDS011;71249;52.084;5.304;2023-07-13T03:00:18;7.4;;;2.5;;
81815;SDS011;71249;52.084;5.304;2023-07-13T03:01:54;9.5;;;2.7;;
81815;SDS011;71249;52.084;5.304;2023-07-13T03:03:30;6.3;;;2.4;;
81815;SDS011;71249;52.084;5.304;2023-07-13T03:06:43;6.6;;;2.7;;
81815;SDS011;71249;52.084;5.304;2023-07-13T03:08:19;7.2;;;2.6;;
81815;SDS011;71249;52.084;5.304;2023-07-13T03:09:55;7.8;;;2.9;;
81815;SDS011;71249;52.084;5.304;2023-07-13T03:13:09;8.5;;;2.9;;
81815;SDS011;71249;52.084;5.304;2023-07-13T03:14:45;8.4;;;2.9;;
81815;SDS011;71249;52.084;5.304;2023-07-13T03:16:21;7.5;;;2.7;;
81815;SDS011;71249;52.084;5.304;2023-07-13T03:19:34;9.71;;;2.9;;
81815;SDS011;71249;52.084;5.304;2023-07-13T03:21:10;8.5;;;3.3;;
81815;SDS011;71249;52.084;5.304;2023-07-13T03:22:46;9.9;;;3.0;;
81815;SDS011;71249;52.084;5.304;2023-07-13T03:24:23;10.21;;;2.9;;
81815;SDS011;71249;52.084;5.304;2023-07-13T03:27:41;8.0;;;3.1;;
81815;SDS011;71249;52.084;5.304;2023-07-13T03:29:17;6.7;;;2.7;;
81815;SDS011;71249;52.084;5.304;2023-07-13T03:30:58;9.4;;;3.0;;
81815;SDS011;71249;52.084;5.304;2023-07-13T03:34:11;7.3;;;3.0;;
81815;SDS011;71249;52.084;5.304;2023-07-13T03:35:47;8.4;;;3.1;;
81815;SDS011;71249;52.084;5.304;2023-07-13T03:37:24;9.0;;;2.8;;
81815;SDS011;71249;52.084;5.304;2023-07-13T03:39:00;6.4;;;2.7;;
81815;SDS011;71249;52.084;5.304;2023-07-13T03:42:14;10.3;;;3.2;;
81815;SDS011;71249;52.084;5.304;2023-07-13T03:43:50;7.8;;;2.7;;
81815;SDS011;71249;52.084;5.304;2023-07-13T03:45:27;7.4;;;3.1;;
81815;SDS011;71249;52.084;5.304;2023-07-13T03:48:40;7.0;;;3.0;;
81815;SDS011;71249;52.084;5.304;2023-07-13T03:50:16;9.71;;;3.1;;
81815;SDS011;71249;52.084;5.304;2023-07-13T03:51:52;8.71;;;3.0;;
81815;SDS011;71249;52.084;5.304;2023-07-13T03:55:04;7.7;;;2.8;;
81815;SDS011;71249;52.084;5.304;2023-07-13T03:56:41;11.2;;;3.2;;
81815;SDS011;71249;52.084;5.304;2023-07-13T03:58:35;9.9;;;3.0;;
81815;SDS011;71249;52.084;5.304;2023-07-13T04:00:13;9.9;;;3.5;;
81815;SDS011;71249;52.084;5.304;2023-07-13T04:03:26;8.9;;;3.4;;
81815;SDS011;71249;52.084;5.304;2023-07-13T04:05:03;9.5;;;3.1;;
81815;SDS011;71249;52.084;5.304;2023-07-13T04:06:40;8.9;;;2.9;;
81815;SDS011;71249;52.084;5.304;2023-07-13T04:08:16;11.1;;;3.5;;
81815;SDS011;71249;52.084;5.304;2023-07-13T04:11:30;9.4;;;3.5;;
81815;SDS011;71249;52.084;5.304;2023-07-13T04:13:08;8.31;;;3.3;;
81815;SDS011;71249;52.084;5.304;2023-07-13T04:14:44;7.3;;;3.0;;
81815;SDS011;71249;52.084;5.304;2023-07-13T04:17:57;9.5;;;4.0;;
81815;SDS011;71249;52.084;5.304;2023-07-13T04:19:34;8.5;;;4.1;;
81815;SDS011;71249;52.084;5.304;2023-07-13T04:21:11;8.4;;;3.7;;
81815;SDS011;71249;52.084;5.304;2023-07-13T04:24:24;8.5;;;3.5;;
81815;SDS011;71249;52.084;5.304;2023-07-13T04:26:00;10.0;;;3.5;;
81815;SDS011;71249;52.084;5.304;2023-07-13T04:27:36;9.71;;;4.0;;
81815;SDS011;71249;52.084;5.304;2023-07-13T04:29:12;10.1;;;3.3;;
81815;SDS011;71249;52.084;5.304;2023-07-13T04:32:25;11.3;;;4.91;;
81815;SDS011;71249;52.084;5.304;2023-07-13T04:34:02;14.9;;;4.7;;
81815;SDS011;71249;52.084;5.304;2023-07-13T04:35:38;11.0;;;4.3;;
81815;SDS011;71249;52.084;5.304;2023-07-13T04:38:51;14.2;;;4.8;;
81815;SDS011;71249;52.084;5.304;2023-07-13T04:40:27;14.4;;;4.91;;
81815;SDS011;71249;52.084;5.304;2023-07-13T04:42:04;10.9;;;4.61;;
81815;SDS011;71249;52.084;5.304;2023-07-13T04:45:17;12.5;;;4.3;;
81815;SDS011;71249;52.084;5.304;2023-07-13T04:46:53;12.2;;;4.7;;
81815;SDS011;71249;52.084;5.304;2023-07-13T04:48:30;13.9;;;4.7;;
81815;SDS011;71249;52.084;5.304;2023-07-13T04:50:06;9.81;;;4.41;;
81815;SDS011;71249;52.084;5.304;2023-07-13T04:53:20;12.3;;;4.8;;
81815;SDS011;71249;52.084;5.304;2023-07-13T04:54:56;14.2;;;5.4;;
81815;SDS011;71249;52.084;5.304;2023-07-13T04:56:32;16.3;;;4.8;;
81815;SDS011;71249;52.084;5.304;2023-07-13T04:59:45;14.1;;;5.11;;
81815;SDS011;71249;52.084;5.304;2023-07-13T05:01:21;16.7;;;4.91;;
81815;SDS011;71249;52.084;5.304;2023-07-13T05:02:57;13.2;;;5.0;;
81815;SDS011;71249;52.084;5.304;2023-07-13T05:07:46;12.6;;;4.7;;
81815;SDS011;71249;52.084;5.304;2023-07-13T05:09:22;14.4;;;4.8;;
81815;SDS011;71249;52.084;5.304;2023-07-13T05:10:59;16.3;;;5.3;;
81815;SDS011;71249;52.084;5.304;2023-07-13T05:14:12;16.11;;;5.2;;
81815;SDS011;71249;52.084;5.304;2023-07-13T05:15:54;11.0;;;4.5;;
81815;SDS011;71249;52.084;5.304;2023-07-13T05:17:32;14.4;;;5.5;;
81815;SDS011;71249;52.084;5.304;2023-07-13T05:20:46;13.9;;;5.2;;
81815;SDS011;71249;52.084;5.304;2023-07-13T05:22:23;13.9;;;5.3;;
81815;SDS011;71249;52.084;5.304;2023-07-13T05:27:11;14.8;;;5.7;;
81815;SDS011;71249;52.084;5.304;2023-07-13T05:28:47;15.2;;;5.7;;
81815;SDS011;71249;52.084;5.304;2023-07-13T05:30:23;13.0;;;5.3;;
81815;SDS011;71249;52.084;5.304;2023-07-13T05:32:00;14.3;;;5.5;;
81815;SDS011;71249;52.084;5.304;2023-07-13T05:35:12;16.11;;;5.6;;
81815;SDS011;71249;52.084;5.304;2023-07-13T05:36:48;19.91;;;5.9;;
81815;SDS011;71249;52.084;5.304;2023-07-13T05:38:25;13.6;;;5.9;;
81815;SDS011;71249;52.084;5.304;2023-07-13T05:41:37;14.3;;;5.6;;
81815;SDS011;71249;52.084;5.304;2023-07-13T05:43:14;15.0;;;5.3;;
81815;SDS011;71249;52.084;5.304;2023-07-13T05:44:50;17.5;;;5.9;;
81815;SDS011;71249;52.084;5.304;2023-07-13T05:48:04;17.41;;;5.7;;
81815;SDS011;71249;52.084;5.304;2023-07-13T05:51:16;15.6;;;6.0;;
81815;SDS011;71249;52.084;5.304;2023-07-13T05:52:52;13.6;;;5.9;;
81815;SDS011;71249;52.084;5.304;2023-07-13T05:56:05;17.5;;;6.3;;
81815;SDS011;71249;52.084;5.304;2023-07-13T05:57:41;16.3;;;6.2;;
81815;SDS011;71249;52.084;5.304;2023-07-13T05:59:17;15.3;;;5.7;;
81815;SDS011;71249;52.084;5.304;2023-07-13T06:02:36;18.3;;;7.3;;
81815;SDS011;71249;52.084;5.304;2023-07-13T06:04:12;17.91;;;7.0;;
81815;SDS011;71249;52.084;5.304;2023-07-13T06:05:48;15.8;;;6.4;;
81815;SDS011;71249;52.084;5.304;2023-07-13T06:09:01;16.9;;;6.9;;
81815;SDS011;71249;52.084;5.304;2023-07-13T06:10:38;19.91;;;7.2;;
81815;SDS011;71249;52.084;5.304;2023-07-13T06:12:14;24.3;;;8.4;;
81815;SDS011;71249;52.084;5.304;2023-07-13T06:13:50;20.11;;;8.31;;
81815;SDS011;71249;52.084;5.304;2023-07-13T06:17:04;26.6;;;10.21;;
81815;SDS011;71249;52.084;5.304;2023-07-13T06:18:41;18.0;;;7.6;;
81815;SDS011;71249;52.084;5.304;2023-07-13T06:20:18;16.2;;;7.0;;
81815;SDS011;71249;52.084;5.304;2023-07-13T06:23:30;18.2;;;7.9;;
81815;SDS011;71249;52.084;5.304;2023-07-13T06:25:06;17.11;;;7.8;;
81815;SDS011;71249;52.084;5.304;2023-07-13T06:26:43;17.5;;;7.5;;
81815;SDS011;71249;52.084;5.304;2023-07-13T06:29:55;20.0;;;8.0;;
81815;SDS011;71249;52.084;5.304;2023-07-13T06:31:31;17.5;;;8.5;;
81815;SDS011;71249;52.084;5.304;2023-07-13T06:33:07;18.61;;;8.5;;
81815;SDS011;71249;52.084;5.304;2023-07-13T06:34:43;19.3;;;8.31;;
81815;SDS011;71249;52.084;5.304;2023-07-13T06:37:55;24.9;;;9.4;;
81815;SDS011;71249;52.084;5.304;2023-07-13T06:39:32;16.0;;;7.6;;
81815;SDS011;71249;52.084;5.304;2023-07-13T06:41:09;22.9;;;8.4;;
81815;SDS011;71249;52.084;5.304;2023-07-13T06:44:21;19.41;;;8.31;;
81815;SDS011;71249;52.084;5.304;2023-07-13T06:45:57;25.3;;;9.71;;
81815;SDS011;71249;52.084;5.304;2023-07-13T06:47:34;20.5;;;9.5;;
81815;SDS011;71249;52.084;5.304;2023-07-13T06:50:47;25.0;;;10.0;;
81815;SDS011;71249;52.084;5.304;2023-07-13T06:52:24;22.1;;;9.9;;
81815;SDS011;71249;52.084;5.304;2023-07-13T06:54:01;20.7;;;9.71;;
81815;SDS011;71249;52.084;5.304;2023-07-13T06:55:37;25.6;;;10.21;;
81815;SDS011;71249;52.084;5.304;2023-07-13T06:58:50;24.6;;;9.81;;
81815;SDS011;71249;52.084;5.304;2023-07-13T07:00:26;20.41;;;9.21;;
81815;SDS011;71249;52.084;5.304;2023-07-13T07:02:03;20.8;;;9.31;;
81815;SDS011;71249;52.084;5.304;2023-07-13T07:05:16;20.8;;;9.31;;
81815;SDS011;71249;52.084;5.304;2023-07-13T07:06:52;21.3;;;9.9;;
81815;SDS011;71249;52.084;5.304;2023-07-13T07:08:28;19.0;;;9.6;;
81815;SDS011;71249;52.084;5.304;2023-07-13T07:11:41;18.3;;;9.6;;
81815;SDS011;71249;52.084;5.304;2023-07-13T07:13:18;20.3;;;10.6;;
81815;SDS011;71249;52.084;5.304;2023-07-13T07:14:54;17.11;;;9.21;;
81815;SDS011;71249;52.084;5.304;2023-07-13T07:16:31;20.3;;;9.4;;
81815;SDS011;71249;52.084;5.304;2023-07-13T07:19:43;21.3;;;10.21;;
81815;SDS011;71249;52.084;5.304;2023-07-13T07:21:19;24.6;;;9.9;;
81815;SDS011;71249;52.084;5.304;2023-07-13T07:22:55;18.61;;;9.5;;
81815;SDS011;71249;52.084;5.304;2023-07-13T07:26:08;23.1;;;10.21;;
81815;SDS011;71249;52.084;5.304;2023-07-13T07:27:44;23.1;;;10.0;;
81815;SDS011;71249;52.084;5.304;2023-07-13T07:29:21;21.0;;;11.0;;
81815;SDS011;71249;52.084;5.304;2023-07-13T07:32:34;20.9;;;9.31;;
81815;SDS011;71249;52.084;5.304;2023-07-13T07:34:10;20.0;;;10.3;;
81815;SDS011;71249;52.084;5.304;2023-07-13T07:35:46;20.3;;;10.6;;
81815;SDS011;71249;52.084;5.304;2023-07-13T07:39:00;24.1;;;11.4;;
81815;SDS011;71249;52.084;5.304;2023-07-13T07:40:36;19.5;;;10.9;;
81815;SDS011;71249;52.084;5.304;2023-07-13T07:42:13;22.9;;;12.5;;
81815;SDS011;71249;52.084;5.304;2023-07-13T07:43:49;22.2;;;11.7;;
81815;SDS011;71249;52.084;5.304;2023-07-13T07:47:02;23.7;;;11.2;;
81815;SDS011;71249;52.084;5.304;2023-07-13T07:48:39;19.11;;;10.8;;
81815;SDS011;71249;52.084;5.304;2023-07-13T07:50:15;23.0;;;11.3;;
81815;SDS011;71249;52.084;5.304;2023-07-13T07:53:28;21.2;;;12.1;;
81815;SDS011;71249;52.084;5.304;2023-07-13T07:55:05;17.8;;;10.1;;
81815;SDS011;71249;52.084;5.304;2023-07-13T07:56:43;18.2;;;10.9;;
81815;SDS011;71249;52.084;5.304;2023-07-13T07:58:20;23.1;;;11.2;;
81815;SDS011;71249;52.084;5.304;2023-07-13T08:01:32;20.6;;;10.3;;
81815;SDS011;71249;52.084;5.304;2023-07-13T08:03:09;19.91;;;10.9;;
81815;SDS011;71249;52.084;5.304;2023-07-13T08:08:00;18.2;;;9.9;;
81815;SDS011;71249;52.084;5.304;2023-07-13T08:09:36;17.8;;;10.3;;
81815;SDS011;71249;52.084;5.304;2023-07-13T08:11:12;18.61;;;9.71;;
81815;SDS011;71249;52.084;5.304;2023-07-13T08:14:24;20.8;;;9.81;;
81815;SDS011;71249;52.084;5.304;2023-07-13T08:16:01;19.0;;;9.6;;
81815;SDS011;71249;52.084;5.304;2023-07-13T08:17:40;16.8;;;8.2;;
81815;SDS011;71249;52.084;5.304;2023-07-13T08:19:17;15.9;;;8.6;;
81815;SDS011;71249;52.084;5.304;2023-07-13T08:22:29;18.5;;;9.21;;
81815;SDS011;71249;52.084;5.304;2023-07-13T08:24:06;18.91;;;9.1;;
81815;SDS011;71249;52.084;5.304;2023-07-13T08:25:43;18.11;;;7.8;;
81815;SDS011;71249;52.084;5.304;2023-07-13T08:29:04;16.61;;;7.4;;
81815;SDS011;71249;52.084;5.304;2023-07-13T08:30:40;14.1;;;6.8;;
81815;SDS011;71249;52.084;5.304;2023-07-13T08:32:17;15.1;;;5.3;;
81815;SDS011;71249;52.084;5.304;2023-07-13T08:33:55;15.1;;;5.3;;
81815;SDS011;71249;52.084;5.304;2023-07-13T08:37:07;11.5;;;4.41;;
81815;SDS011;71249;52.084;5.304;2023-07-13T08:38:45;9.71;;;4.41;;
81815;SDS011;71249;52.084;5.304;2023-07-13T08:40:23;5.8;;;2.7;;
81815;SDS011;71249;52.084;5.304;2023-07-13T08:43:48;6.7;;;2.6;;
81815;SDS011;71249;52.084;5.304;2023-07-13T08:45:33;6.9;;;2.6;;
81815;SDS011;71249;52.084;5.304;2023-07-13T08:47:18;7.7;;;3.1;;
81815;SDS011;71249;52.084;5.304;2023-07-13T08:49:01;6.8;;;3.2;;
81815;SDS011;71249;52.084;5.304;2023-07-13T08:50:45;6.8;;;2.9;;
81815;SDS011;71249;52.084;5.304;2023-07-13T08:54:17;6.8;;;2.9;;
81815;SDS011;71249;52.084;5.304;2023-07-13T08:55:59;6.6;;;2.8;;
81815;SDS011;71249;52.084;5.304;2023-07-13T08:57:36;6.6;;;2.8;;
81815;SDS011;71249;52.084;5.304;2023-07-13T08:59:17;8.31;;;3.1;;
81815;SDS011;71249;52.084;5.304;2023-07-13T09:02:45;6.9;;;2.8;;
81815;SDS011;71249;52.084;5.304;2023-07-13T09:04:29;7.6;;;3.0;;
81815;SDS011;71249;52.084;5.304;2023-07-13T09:06:10;6.7;;;3.0;;
81815;SDS011;71249;52.084;5.304;2023-07-13T09:07:58;7.4;;;3.0;;
81815;SDS011;71249;52.084;5.304;2023-07-13T09:11:47;7.4;;;3.2;;
81815;SDS011;71249;52.084;5.304;2023-07-13T09:15:21;9.0;;;3.2;;
81815;SDS011;71249;52.084;5.304;2023-07-13T09:17:04;6.9;;;3.0;;
81815;SDS011;71249;52.084;5.304;2023-07-13T09:18:48;6.5;;;3.1;;
81815;SDS011;71249;52.084;5.304;2023-07-13T09:20:29;8.0;;;2.6;;
81815;SDS011;71249;52.084;5.304;2023-07-13T09:22:13;7.0;;;2.7;;
81815;SDS011;71249;52.084;5.304;2023-07-13T09:25:59;6.6;;;2.4;;
81815;SDS011;71249;52.084;5.304;2023-07-13T09:27:42;6.2;;;2.6;;
81815;SDS011;71249;52.084;5.304;2023-07-13T09:29:23;7.0;;;2.5;;
81815;SDS011;71249;52.084;5.304;2023-07-13T09:31:07;7.3;;;2.6;;
81815;SDS011;71249;52.084;5.304;2023-07-13T09:32:48;7.5;;;2.5;;
81815;SDS011;71249;52.084;5.304;2023-07-13T09:36:20;6.4;;;2.31;;
81815;SDS011;71249;52.084;5.304;2023-07-13T09:38:01;7.2;;;2.5;;
81815;SDS011;71249;52.084;5.304;2023-07-13T09:39:46;7.2;;;2.8;;
81815;SDS011;71249;52.084;5.304;2023-07-13T09:41:26;5.8;;;2.6;;
81815;SDS011;71249;52.084;5.304;2023-07-13T09:43:10;4.7;;;2.4;;
81815;SDS011;71249;52.084;5.304;2023-07-13T09:46:30;6.3;;;2.6;;
81815;SDS011;71249;52.084;5.304;2023-07-13T09:48:06;4.61;;;2.5;;
81815;SDS011;71249;52.084;5.304;2023-07-13T09:49:49;4.61;;;2.5;;
81815;SDS011;71249;52.084;5.304;2023-07-13T09:51:31;4.7;;;2.21;;
81815;SDS011;71249;52.084;5.304;2023-07-13T09:54:49;5.3;;;2.7;;
81815;SDS011;71249;52.084;5.304;2023-07-13T09:56:28;7.7;;;2.31;;
81815;SDS011;71249;52.084;5.304;2023-07-13T09:58:08;4.5;;;2.1;;
81815;SDS011;71249;52.084;5.304;2023-07-13T09:59:49;5.2;;;2.1;;
81815;SDS011;71249;52.084;5.304;2023-07-13T10:03:16;4.61;;;2.1;;
81815;SDS011;71249;52.084;5.304;2023-07-13T10:04:55;5.2;;;2.31;;
81815;SDS011;71249;52.084;5.304;2023-07-13T10:06:34;6.0;;;2.31;;
81815;SDS011;71249;52.084;5.304;2023-07-13T10:08:18;4.8;;;2.6;;
81815;SDS011;71249;52.084;5.304;2023-07-13T10:11:39;5.11;;;2.31;;
81815;SDS011;71249;52.084;5.304;2023-07-13T10:13:25;6.9;;;2.4;;
81815;SDS011;71249;52.084;5.304;2023-07-13T10:15:17;10.5;;;2.8;;
81815;SDS011;71249;52.084;5.304;2023-07-13T10:16:56;4.91;;;2.31;;
81815;SDS011;71249;52.084;5.304;2023-07-13T10:18:39;5.6;;;3.0;;
81815;SDS011;71249;52.084;5.304;2023-07-13T10:21:58;5.4;;;2.6;;
81815;SDS011;71249;52.084;5.304;2023-07-13T10:23:37;5.2;;;2.31;;
81815;SDS011;71249;52.084;5.304;2023-07-13T10:25:15;7.1;;;2.5;;
81815;SDS011;71249;52.084;5.304;2023-07-13T10:26:55;9.9;;;2.8;;
81815;SDS011;71249;52.084;5.304;2023-07-13T10:30:31;6.7;;;2.6;;
81815;SDS011;71249;52.084;5.304;2023-07-13T10:32:14;8.2;;;2.7;;
81815;SDS011;71249;52.084;5.304;2023-07-13T10:33:50;4.8;;;2.4;;
81815;SDS011;71249;52.084;5.304;2023-07-13T10:35:28;6.5;;;2.4;;
81815;SDS011;71249;52.084;5.304;2023-07-13T10:38:52;4.61;;;2.31;;
81815;SDS011;71249;52.084;5.304;2023-07-13T10:40:32;3.9;;;1.9;;
81815;SDS011;71249;52.084;5.304;2023-07-13T10:42:13;3.0;;;2.0;;
81815;SDS011;71249;52.084;5.304;2023-07-13T10:44:11;5.4;;;2.5;;
81815;SDS011;71249;52.084;5.304;2023-07-13T10:45:55;3.5;;;1.8;;
81815;SDS011;71249;52.084;5.304;2023-07-13T10:49:09;4.7;;;2.4;;
81815;SDS011;71249;52.084;5.304;2023-07-13T10:50:48;5.3;;;2.4;;
81815;SDS011;71249;52.084;5.304;2023-07-13T10:52:45;4.2;;;2.21;;
81815;SDS011;71249;52.084;5.304;2023-07-13T10:54:26;4.5;;;1.8;;
81815;SDS011;71249;52.084;5.304;2023-07-13T10:58:00;4.91;;;2.1;;
81815;SDS011;71249;52.084;5.304;2023-07-13T10:59:37;5.7;;;2.1;;
81815;SDS011;71249;52.084;5.304;2023-07-13T11:01:14;4.5;;;1.9;;
81815;SDS011;71249;52.084;5.304;2023-07-13T11:02:56;3.7;;;1.7;;
81815;SDS011;71249;52.084;5.304;2023-07-13T11:04:39;3.2;;;1.6;;
81815;SDS011;71249;52.084;5.304;2023-07-13T11:08:15;4.3;;;2.4;;
81815;SDS011;71249;52.084;5.304;2023-07-13T11:09:57;3.8;;;2.1;;
81815;SDS011;71249;52.084;5.304;2023-07-13T11:11:36;6.4;;;2.4;;
81815;SDS011;71249;52.084;5.304;2023-07-13T11:13:36;4.8;;;2.31;;
81815;SDS011;71249;52.084;5.304;2023-07-13T11:15:32;8.0;;;3.0;;
81815;SDS011;71249;52.084;5.304;2023-07-13T11:17:24;6.8;;;2.7;;
81815;SDS011;71249;52.084;5.304;2023-07-13T11:19:28;6.2;;;2.6;;
81815;SDS011;71249;52.084;5.304;2023-07-13T11:21:17;6.5;;;2.7;;
81815;SDS011;71249;52.084;5.304;2023-07-13T11:24:58;6.7;;;2.6;;
81815;SDS011;71249;52.084;5.304;2023-07-13T11:26:37;7.6;;;2.7;;
81815;SDS011;71249;52.084;5.304;2023-07-13T11:28:18;7.6;;;2.7;;
81815;SDS011;71249;52.084;5.304;2023-07-13T11:30:08;6.7;;;3.1;;
81815;SDS011;71249;52.084;5.304;2023-07-13T11:32:00;6.7;;;2.7;;
81815;SDS011;71249;52.084;5.304;2023-07-13T11:33:59;6.4;;;2.4;;
81815;SDS011;71249;52.084;5.304;2023-07-13T11:37:20;6.7;;;2.8;;
81815;SDS011;71249;52.084;5.304;2023-07-13T11:39:00;5.4;;;2.6;;
81815;SDS011;71249;52.084;5.304;2023-07-13T11:40:41;5.3;;;2.4;;
81815;SDS011;71249;52.084;5.304;2023-07-13T11:42:20;7.6;;;3.2;;
81815;SDS011;71249;52.084;5.304;2023-07-13T11:45:44;9.9;;;4.3;;
81815;SDS011;71249;52.084;5.304;2023-07-13T11:47:22;11.6;;;4.1;;
81815;SDS011;71249;52.084;5.304;2023-07-13T11:48:59;8.31;;;3.0;;
81815;SDS011;71249;52.084;5.304;2023-07-13T11:50:35;8.71;;;3.2;;
81815;SDS011;71249;52.084;5.304;2023-07-13T11:53:50;7.9;;;3.8;;
81815;SDS011;71249;52.084;5.304;2023-07-13T11:55:29;8.6;;;3.9;;
81815;SDS011;71249;52.084;5.304;2023-07-13T11:57:07;7.8;;;4.0;;
81815;SDS011;71249;52.084;5.304;2023-07-13T11:59:03;10.1;;;4.41;;
81815;SDS011;71249;52.084;5.304;2023-07-13T12:02:22;8.4;;;4.61;;
81815;SDS011;71249;52.084;5.304;2023-07-13T12:04:06;10.1;;;4.91;;
81815;SDS011;71249;52.084;5.304;2023-07-13T12:05:56;9.1;;;4.5;;
81815;SDS011;71249;52.084;5.304;2023-07-13T12:07:35;10.5;;;5.11;;
81815;SDS011;71249;52.084;5.304;2023-07-13T12:11:00;8.71;;;5.11;;
81815;SDS011;71249;52.084;5.304;2023-07-13T12:12:40;8.2;;;3.9;;
81815;SDS011;71249;52.084;5.304;2023-07-13T12:14:24;7.7;;;4.3;;
81815;SDS011;71249;52.084;5.304;2023-07-13T12:16:00;8.4;;;4.41;;
81815;SDS011;71249;52.084;5.304;2023-07-13T12:19:15;6.4;;;3.5;;
81815;SDS011;71249;52.084;5.304;2023-07-13T12:20:55;8.71;;;4.61;;
81815;SDS011;71249;52.084;5.304;2023-07-13T12:22:34;7.7;;;3.9;;
81815;SDS011;71249;52.084;5.304;2023-07-13T12:24:13;11.6;;;4.5;;
81815;SDS011;71249;52.084;5.304;2023-07-13T12:27:29;5.7;;;3.1;;
81815;SDS011;71249;52.084;5.304;2023-07-13T12:29:05;7.4;;;3.3;;
81815;SDS011;71249;52.084;5.304;2023-07-13T12:30:43;7.0;;;2.7;;
81815;SDS011;71249;52.084;5.304;2023-07-13T12:32:25;6.2;;;3.2;;
81815;SDS011;71249;52.084;5.304;2023-07-13T12:35:45;4.3;;;3.2;;
81815;SDS011;71249;52.084;5.304;2023-07-13T12:37:25;4.8;;;3.4;;
81815;SDS011;71249;52.084;5.304;2023-07-13T12:40:49;4.2;;;2.7;;
81815;SDS011;71249;52.084;5.304;2023-07-13T12:44:10;5.11;;;2.7;;
81815;SDS011;71249;52.084;5.304;2023-07-13T12:45:55;7.0;;;2.8;;
81815;SDS011;71249;52.084;5.304;2023-07-13T12:47:39;6.0;;;3.1;;
81815;SDS011;71249;52.084;5.304;2023-07-13T12:49:17;5.0;;;2.8;;
81815;SDS011;71249;52.084;5.304;2023-07-13T12:52:37;6.4;;;3.1;;
81815;SDS011;71249;52.084;5.304;2023-07-13T12:54:15;5.3;;;3.1;;
81815;SDS011;71249;52.084;5.304;2023-07-13T12:55:54;4.2;;;2.4;;
81815;SDS011;71249;52.084;5.304;2023-07-13T13:00:57;5.7;;;2.21;;
81815;SDS011;71249;52.084;5.304;2023-07-13T13:02:36;4.7;;;2.31;;
81815;SDS011;71249;52.084;5.304;2023-07-13T13:04:13;5.8;;;2.8;;
81815;SDS011;71249;52.084;5.304;2023-07-13T13:07:25;6.3;;;2.4;;